Williamtown, New South Wales

2:42 AM AEDT on December 26, 2014 (GMT +1100)
Cluey Solutions, Harriet Cl | Change Station
CLOSE
Current Station
Personal Weather Station
Location: Raymond Terrace, NEW SOUTH WALES
Elevation: 62 ft
Nearby Weather Stations

Elev 62 ft 32.75 °S, 151.76 °E | Updated 3 minutes ago

Light Rain Showers
Light Showers Rain
69.4 °F
Feels Like 69.4 °F
N
1.2
Wind Variable Wind from NW
Gusts 2.0 mph

Today
High -- | Low -- °F
--% Chance of Precip.
Yesterday
High -- | Low -- °F
Precip. -- in
5:43 AM 8:02 PM
Waxing Crescent, 17% visible
Pressure 29.71 in
Visibility 6.2 miles
Clouds Scattered Clouds 600 ft
Overcast 11000 ft
Dew Point 69 °F
Humidity 98%
Rainfall 0.17 in
Snow Depth Not available.
UV 0 out of 12
Pollen Not available.
Air Quality Not available.
Flu Activity Not available.
METAR YWLM 251530Z AUTO 32006KT 9999 -SHRA SCT006 OVC110 21/21 Q1006

More Conditions Fewer Conditions

Pressure 29.71 in
Visibility 6.2 miles
Clouds Scattered Clouds 600 ft
Overcast 11000 ft
Dew Point 69 °F
Humidity 98%
Rainfall 0.17 in
Snow Depth Not available.
UV 0 out of 12
Pollen Not available.
Air Quality Not available.
Flu Activity Not available.
METAR YWLM 251530Z AUTO 32006KT 9999 -SHRA SCT006 OVC110 21/21 Q1006

More Conditions Fewer Conditions

10-Day Weather Forecast

Almanac

Astronomy

Dec. 26, 2014 Rise Set
Actual Time
Civil Twilight
Nautical Twilight
Astronomical Twilight
Moon
Length of Visible Light
Length of Day
Tomorrow will be .
, % of the Moon is Illuminated

Today's Extremes

Country Highs Country Lows

Community

WunderPhotos

Upload Photos

1,780,315 photos uploaded!

WunderBlogs® & News

Nearby

Air Quality

  Air Quality AQ Index Pollutant
Not available.

Snow Depth

Station Depth Elevation

Earthquake Activity

City Distance Mag. Time & Date
Minimum magnitude displayed is 2.5.

Coastal Water Temperatures

Place Temperature

Nearby Weather Stations